sensor_id;sensor_type;location;lat;lon;timestamp;pressure;altitude;pressure_sealevel;temperature;humidity
63556;BME280;49700;48.072;7.800;2024-01-15T00:02:07;98782.13;;;-2.01;72.57
63556;BME280;49700;48.072;7.800;2024-01-15T00:04:37;98781.28;;;-2.02;72.83
63556;BME280;49700;48.072;7.800;2024-01-15T00:07:04;98779.53;;;-1.99;72.38
63556;BME280;49700;48.072;7.800;2024-01-15T00:09:29;98772.59;;;-1.97;72.65
63556;BME280;49700;48.072;7.800;2024-01-15T00:11:57;98770.88;;;-1.97;72.65
63556;BME280;49700;48.072;7.800;2024-01-15T00:14:23;98769.16;;;-1.96;72.66
63556;BME280;49700;48.072;7.800;2024-01-15T00:16:48;98764.03;;;-1.98;72.60
63556;BME280;49700;48.072;7.800;2024-01-15T00:19:17;98770.09;;;-2.01;72.58
63556;BME280;49700;48.072;7.800;2024-01-15T00:21:42;98756.38;;;-2.01;72.74
63556;BME280;49700;48.072;7.800;2024-01-15T00:24:08;98754.72;;;-2.02;72.47
63556;BME280;49700;48.072;7.800;2024-01-15T00:26:33;98756.41;;;-2.03;72.44
63556;BME280;49700;48.072;7.800;2024-01-15T00:28:59;98750.44;;;-2.03;72.18
63556;BME280;49700;48.072;7.800;2024-01-15T00:31:25;98754.81;;;-2.05;72.10
63556;BME280;49700;48.072;7.800;2024-01-15T00:33:50;98744.56;;;-2.08;72.42
63556;BME280;49700;48.072;7.800;2024-01-15T00:36:15;98735.25;;;-2.12;72.17
63556;BME280;49700;48.072;7.800;2024-01-15T00:38:42;98729.28;;;-2.14;72.30
63556;BME280;49700;48.072;7.800;2024-01-15T00:41:08;98741.59;;;-2.26;72.05
63556;BME280;49700;48.072;7.800;2024-01-15T00:43:34;98739.50;;;-2.44;72.16
63556;BME280;49700;48.072;7.800;2024-01-15T00:46:02;98741.56;;;-2.58;72.51
63556;BME280;49700;48.072;7.800;2024-01-15T00:48:28;98734.94;;;-2.69;72.84
63556;BME280;49700;48.072;7.800;2024-01-15T00:50:53;98735.09;;;-2.75;72.77
63556;BME280;49700;48.072;7.800;2024-01-15T00:53:19;98733.59;;;-2.83;72.93
63556;BME280;49700;48.072;7.800;2024-01-15T00:55:47;98737.09;;;-2.87;72.88
63556;BME280;49700;48.072;7.800;2024-01-15T00:58:13;98725.94;;;-2.86;72.96
63556;BME280;49700;48.072;7.800;2024-01-15T01:00:38;98722.50;;;-2.85;72.91
63556;BME280;49700;48.072;7.800;2024-01-15T01:03:07;98723.31;;;-2.83;72.92
63556;BME280;49700;48.072;7.800;2024-01-15T01:05:34;98724.94;;;-2.79;72.91
63556;BME280;49700;48.072;7.800;2024-01-15T01:08:03;98723.97;;;-2.75;72.59
63556;BME280;49700;48.072;7.800;2024-01-15T01:10:28;98733.38;;;-2.74;72.43
63556;BME280;49700;48.072;7.800;2024-01-15T01:12:54;98727.41;;;-2.76;72.50
63556;BME280;49700;48.072;7.800;2024-01-15T01:15:19;98730.06;;;-2.79;72.39
63556;BME280;49700;48.072;7.800;2024-01-15T01:17:45;98737.84;;;-2.82;72.50
63556;BME280;49700;48.072;7.800;2024-01-15T01:20:11;98731.97;;;-2.87;72.53
63556;BME280;49700;48.072;7.800;2024-01-15T01:22:37;98734.56;;;-2.89;72.62
63556;BME280;49700;48.072;7.800;2024-01-15T01:25:03;98736.28;;;-2.88;72.90
63556;BME280;49700;48.072;7.800;2024-01-15T01:27:29;98737.88;;;-2.84;72.65
63556;BME280;49700;48.072;7.800;2024-01-15T01:29:55;98732.59;;;-2.78;72.83
63556;BME280;49700;48.072;7.800;2024-01-15T01:32:20;98733.38;;;-2.74;72.29
63556;BME280;49700;48.072;7.800;2024-01-15T01:34:45;98726.47;;;-2.72;72.44
63556;BME280;49700;48.072;7.800;2024-01-15T01:37:11;98722.94;;;-2.68;72.34
63556;BME280;49700;48.072;7.800;2024-01-15T01:39:40;98724.56;;;-2.64;72.30
63556;BME280;49700;48.072;7.800;2024-01-15T01:42:06;98722.75;;;-2.60;72.51
63556;BME280;49700;48.072;7.800;2024-01-15T01:44:31;98725.22;;;-2.56;72.33
63556;BME280;49700;48.072;7.800;2024-01-15T01:46:58;98731.13;;;-2.52;72.26
63556;BME280;49700;48.072;7.800;2024-01-15T01:49:26;98725.03;;;-2.48;71.99
63556;BME280;49700;48.072;7.800;2024-01-15T01:51:52;98724.13;;;-2.46;72.27
63556;BME280;49700;48.072;7.800;2024-01-15T01:54:19;98735.19;;;-2.43;72.18
63556;BME280;49700;48.072;7.800;2024-01-15T01:56:47;98730.09;;;-2.45;72.44
63556;BME280;49700;48.072;7.800;2024-01-15T01:59:14;98727.38;;;-2.40;72.47
63556;BME280;49700;48.072;7.800;2024-01-15T02:01:40;98735.84;;;-2.35;72.38
63556;BME280;49700;48.072;7.800;2024-01-15T02:04:05;98744.38;;;-2.33;72.40
63556;BME280;49700;48.072;7.800;2024-01-15T02:06:31;98740.03;;;-2.31;72.45
63556;BME280;49700;48.072;7.800;2024-01-15T02:08:57;98737.28;;;-2.25;72.72
63556;BME280;49700;48.072;7.800;2024-01-15T02:11:23;98749.97;;;-2.19;72.60
63556;BME280;49700;48.072;7.800;2024-01-15T02:13:49;98749.06;;;-2.16;72.63
63556;BME280;49700;48.072;7.800;2024-01-15T02:16:14;98747.38;;;-2.16;72.80
63556;BME280;49700;48.072;7.800;2024-01-15T02:18:43;98739.50;;;-2.11;72.70
63556;BME280;49700;48.072;7.800;2024-01-15T02:21:09;98735.13;;;-2.08;72.66
63556;BME280;49700;48.072;7.800;2024-01-15T02:23:36;98738.41;;;-2.03;72.75
63556;BME280;49700;48.072;7.800;2024-01-15T02:26:02;98739.09;;;-1.96;72.71
63556;BME280;49700;48.072;7.800;2024-01-15T02:28:28;98745.81;;;-1.90;72.32
63556;BME280;49700;48.072;7.800;2024-01-15T02:30:53;98737.13;;;-1.86;72.40
63556;BME280;49700;48.072;7.800;2024-01-15T02:33:18;98739.56;;;-1.82;72.45
63556;BME280;49700;48.072;7.800;2024-01-15T02:35:44;98741.31;;;-1.82;72.37
63556;BME280;49700;48.072;7.800;2024-01-15T02:38:11;98728.44;;;-1.82;72.52
63556;BME280;49700;48.072;7.800;2024-01-15T02:40:38;98734.38;;;-1.80;72.46
63556;BME280;49700;48.072;7.800;2024-01-15T02:43:04;98728.34;;;-1.79;72.54
63556;BME280;49700;48.072;7.800;2024-01-15T02:45:29;98730.00;;;-1.76;72.53
63556;BME280;49700;48.072;7.800;2024-01-15T02:47:55;98733.38;;;-1.74;72.66
63556;BME280;49700;48.072;7.800;2024-01-15T02:50:21;98740.19;;;-1.73;72.37
63556;BME280;49700;48.072;7.800;2024-01-15T02:52:46;98738.44;;;-1.71;72.81
63556;BME280;49700;48.072;7.800;2024-01-15T02:55:21;98734.94;;;-1.69;72.59
63556;BME280;49700;48.072;7.800;2024-01-15T02:57:46;98745.19;;;-1.67;72.20
63556;BME280;49700;48.072;7.800;2024-01-15T03:00:12;98739.19;;;-1.68;72.40
63556;BME280;49700;48.072;7.800;2024-01-15T03:02:39;98733.19;;;-1.68;72.37
63556;BME280;49700;48.072;7.800;2024-01-15T03:05:09;98739.25;;;-1.69;72.40
63556;BME280;49700;48.072;7.800;2024-01-15T03:07:34;98741.84;;;-1.71;72.83
63556;BME280;49700;48.072;7.800;2024-01-15T03:10:00;98734.97;;;-1.70;72.69
63556;BME280;49700;48.072;7.800;2024-01-15T03:12:25;98732.31;;;-1.67;73.04
63556;BME280;49700;48.072;7.800;2024-01-15T03:14:51;98737.41;;;-1.66;72.52
63556;BME280;49700;48.072;7.800;2024-01-15T03:17:16;98736.47;;;-1.62;72.65
63556;BME280;49700;48.072;7.800;2024-01-15T03:19:42;98720.09;;;-1.61;72.73
63556;BME280;49700;48.072;7.800;2024-01-15T03:22:07;98722.66;;;-1.59;72.29
63556;BME280;49700;48.072;7.800;2024-01-15T03:24:34;98723.50;;;-1.59;72.86
63556;BME280;49700;48.072;7.800;2024-01-15T03:27:00;98730.28;;;-1.56;72.41
63556;BME280;49700;48.072;7.800;2024-01-15T03:29:32;98713.09;;;-1.56;72.82
63556;BME280;49700;48.072;7.800;2024-01-15T03:31:59;98720.00;;;-1.58;73.08
63556;BME280;49700;48.072;7.800;2024-01-15T03:34:24;98727.84;;;-1.62;72.88
63556;BME280;49700;48.072;7.800;2024-01-15T03:36:50;98722.97;;;-1.71;73.20
63556;BME280;49700;48.072;7.800;2024-01-15T03:39:16;98726.41;;;-1.71;73.36
63556;BME280;49700;48.072;7.800;2024-01-15T03:41:41;98722.97;;;-1.71;73.78
63556;BME280;49700;48.072;7.800;2024-01-15T03:44:07;98727.22;;;-1.70;73.99
63556;BME280;49700;48.072;7.800;2024-01-15T03:46:35;98726.28;;;-1.66;73.94
63556;BME280;49700;48.072;7.800;2024-01-15T03:49:03;98721.00;;;-1.62;73.60
63556;BME280;49700;48.072;7.800;2024-01-15T03:51:29;98731.25;;;-1.60;73.67
63556;BME280;49700;48.072;7.800;2024-01-15T03:53:54;98727.81;;;-1.59;73.59
63556;BME280;49700;48.072;7.800;2024-01-15T03:56:19;98724.28;;;-1.57;73.39
63556;BME280;49700;48.072;7.800;2024-01-15T03:58:45;98717.34;;;-1.54;73.48
63556;BME280;49700;48.072;7.800;2024-01-15T04:01:10;98716.38;;;-1.50;73.34
63556;BME280;49700;48.072;7.800;2024-01-15T04:03:36;98706.88;;;-1.48;73.29
63556;BME280;49700;48.072;7.800;2024-01-15T04:06:03;98711.13;;;-1.47;73.19
63556;BME280;49700;48.072;7.800;2024-01-15T04:08:28;98714.44;;;-1.42;73.47
63556;BME280;49700;48.072;7.800;2024-01-15T04:10:53;98709.19;;;-1.39;72.99
63556;BME280;49700;48.072;7.800;2024-01-15T04:13:20;98706.56;;;-1.38;73.37
63556;BME280;49700;48.072;7.800;2024-01-15T04:15:45;98716.78;;;-1.35;73.43
63556;BME280;49700;48.072;7.800;2024-01-15T04:18:11;98711.53;;;-1.31;73.40
63556;BME280;49700;48.072;7.800;2024-01-15T04:20:36;98706.25;;;-1.27;73.34
63556;BME280;49700;48.072;7.800;2024-01-15T04:23:02;98707.03;;;-1.25;73.13
63556;BME280;49700;48.072;7.800;2024-01-15T04:25:29;98722.44;;;-1.23;73.05
63556;BME280;49700;48.072;7.800;2024-01-15T04:28:09;98718.97;;;-1.22;73.15
63556;BME280;49700;48.072;7.800;2024-01-15T04:30:43;98718.09;;;-1.21;72.87
63556;BME280;49700;48.072;7.800;2024-01-15T04:33:43;98716.38;;;-1.21;73.00
63556;BME280;49700;48.072;7.800;2024-01-15T04:36:08;98720.72;;;-1.23;73.09
63556;BME280;49700;48.072;7.800;2024-01-15T04:38:33;98719.78;;;-1.20;73.33
63556;BME280;49700;48.072;7.800;2024-01-15T04:41:01;98717.94;;;-1.17;73.23
63556;BME280;49700;48.072;7.800;2024-01-15T04:43:27;98717.00;;;-1.14;73.35
63556;BME280;49700;48.072;7.800;2024-01-15T04:45:52;98703.19;;;-1.12;73.32
63556;BME280;49700;48.072;7.800;2024-01-15T04:48:18;98701.41;;;-1.09;73.42
63556;BME280;49700;48.072;7.800;2024-01-15T04:50:44;98701.31;;;-1.06;73.13
63556;BME280;49700;48.072;7.800;2024-01-15T04:53:09;98702.16;;;-1.06;73.25
63556;BME280;49700;48.072;7.800;2024-01-15T04:55:35;98692.69;;;-1.05;73.12
63556;BME280;49700;48.072;7.800;2024-01-15T04:58:00;98694.31;;;-1.03;73.17
63556;BME280;49700;48.072;7.800;2024-01-15T05:00:25;98690.03;;;-1.02;73.39
63556;BME280;49700;48.072;7.800;2024-01-15T05:02:51;98689.13;;;-1.01;73.32
63556;BME280;49700;48.072;7.800;2024-01-15T05:05:16;98685.72;;;-1.02;73.38
63556;BME280;49700;48.072;7.800;2024-01-15T05:07:41;98695.97;;;-1.00;73.54
63556;BME280;49700;48.072;7.800;2024-01-15T05:10:07;98695.94;;;-0.99;73.52
63556;BME280;49700;48.072;7.800;2024-01-15T05:12:33;98698.41;;;-0.96;73.32
63556;BME280;49700;48.072;7.800;2024-01-15T05:14:58;98696.63;;;-0.94;73.54
63556;BME280;49700;48.072;7.800;2024-01-15T05:17:24;98690.53;;;-0.91;73.29
63556;BME280;49700;48.072;7.800;2024-01-15T05:19:49;98695.63;;;-0.90;73.19
63556;BME280;49700;48.072;7.800;2024-01-15T05:22:15;98695.59;;;-0.88;73.40
63556;BME280;49700;48.072;7.800;2024-01-15T05:24:41;98684.34;;;-0.85;73.18
63556;BME280;49700;48.072;7.800;2024-01-15T05:27:07;98691.06;;;-0.81;73.29
63556;BME280;49700;48.072;7.800;2024-01-15T05:29:32;98688.44;;;-0.80;73.28
63556;BME280;49700;48.072;7.800;2024-01-15T05:31:57;98678.88;;;-0.76;73.50
63556;BME280;49700;48.072;7.800;2024-01-15T05:34:23;98679.66;;;-0.74;73.15
63556;BME280;49700;48.072;7.800;2024-01-15T05:36:48;98682.97;;;-0.71;73.23
63556;BME280;49700;48.072;7.800;2024-01-15T05:39:14;98683.75;;;-0.67;73.79
63556;BME280;49700;48.072;7.800;2024-01-15T05:41:39;98673.34;;;-0.65;73.91
63556;BME280;49700;48.072;7.800;2024-01-15T05:44:04;98674.16;;;-0.63;73.88
63556;BME280;49700;48.072;7.800;2024-01-15T05:46:30;98675.84;;;-0.62;73.65
63556;BME280;49700;48.072;7.800;2024-01-15T05:48:55;98682.59;;;-0.58;73.86
63556;BME280;49700;48.072;7.800;2024-01-15T05:51:21;98670.53;;;-0.58;73.46
63556;BME280;49700;48.072;7.800;2024-01-15T05:53:46;98667.00;;;-0.55;73.53
63556;BME280;49700;48.072;7.800;2024-01-15T05:56:21;98664.31;;;-0.52;73.29
63556;BME280;49700;48.072;7.800;2024-01-15T05:58:54;98662.53;;;-0.50;73.43
63556;BME280;49700;48.072;7.800;2024-01-15T06:01:20;98665.00;;;-0.47;73.35
63556;BME280;49700;48.072;7.800;2024-01-15T06:03:45;98659.75;;;-0.44;73.45
63556;BME280;49700;48.072;7.800;2024-01-15T06:06:11;98657.97;;;-0.42;73.04
63556;BME280;49700;48.072;7.800;2024-01-15T06:08:37;98645.84;;;-0.40;73.00
63556;BME280;49700;48.072;7.800;2024-01-15T06:11:02;98652.56;;;-0.36;73.21
63556;BME280;49700;48.072;7.800;2024-01-15T06:13:28;98655.97;;;-0.34;73.31
63556;BME280;49700;48.072;7.800;2024-01-15T06:15:53;98655.97;;;-0.34;73.37
63556;BME280;49700;48.072;7.800;2024-01-15T06:18:19;98647.38;;;-0.34;73.33
63556;BME280;49700;48.072;7.800;2024-01-15T06:20:44;98650.78;;;-0.34;73.02
63556;BME280;49700;48.072;7.800;2024-01-15T06:23:10;98643.06;;;-0.34;73.26
63556;BME280;49700;48.072;7.800;2024-01-15T06:25:35;98643.84;;;-0.32;73.29
63556;BME280;49700;48.072;7.800;2024-01-15T06:28:01;98642.09;;;-0.31;73.43
63556;BME280;49700;48.072;7.800;2024-01-15T06:30:26;98637.75;;;-0.29;73.30
63556;BME280;49700;48.072;7.800;2024-01-15T06:32:51;98636.72;;;-0.25;73.33
63556;BME280;49700;48.072;7.800;2024-01-15T06:35:17;98639.19;;;-0.22;73.21
63556;BME280;49700;48.072;7.800;2024-01-15T06:37:42;98635.66;;;-0.19;73.09
63556;BME280;49700;48.072;7.800;2024-01-15T06:40:08;98632.94;;;-0.15;73.09
63556;BME280;49700;48.072;7.800;2024-01-15T06:42:34;98622.44;;;-0.10;73.12
63556;BME280;49700;48.072;7.800;2024-01-15T06:44:59;98621.50;;;-0.08;72.99
63556;BME280;49700;48.072;7.800;2024-01-15T06:47:25;98611.06;;;-0.05;73.16
63556;BME280;49700;48.072;7.800;2024-01-15T06:49:50;98606.59;;;-0.01;73.13
63556;BME280;49700;48.072;7.800;2024-01-15T06:52:17;98607.44;;;-0.01;73.00
63556;BME280;49700;48.072;7.800;2024-01-15T06:54:42;98593.66;;;0.01;73.04
63556;BME280;49700;48.072;7.800;2024-01-15T06:57:08;98610.78;;;0.03;72.91
63556;BME280;49700;48.072;7.800;2024-01-15T06:59:34;98601.22;;;0.05;72.94
63556;BME280;49700;48.072;7.800;2024-01-15T07:02:01;98598.53;;;0.08;73.00
63556;BME280;49700;48.072;7.800;2024-01-15T07:04:26;98600.13;;;0.11;72.92
63556;BME280;49700;48.072;7.800;2024-01-15T07:06:52;98598.34;;;0.13;72.70
63556;BME280;49700;48.072;7.800;2024-01-15T07:09:17;98606.88;;;0.15;72.92
63556;BME280;49700;48.072;7.800;2024-01-15T07:11:46;98602.56;;;0.15;73.30
63556;BME280;49700;48.072;7.800;2024-01-15T07:14:12;98599.97;;;0.15;73.12
63556;BME280;49700;48.072;7.800;2024-01-15T07:16:38;98597.34;;;0.17;73.45
63556;BME280;49700;48.072;7.800;2024-01-15T07:19:03;98605.94;;;0.17;73.15
63556;BME280;49700;48.072;7.800;2024-01-15T07:21:29;98590.41;;;0.19;73.32
63556;BME280;49700;48.072;7.800;2024-01-15T07:23:55;98585.16;;;0.20;72.98
63556;BME280;49700;48.072;7.800;2024-01-15T07:26:21;98576.50;;;0.21;72.70
63556;BME280;49700;48.072;7.800;2024-01-15T07:28:46;98569.53;;;0.24;73.06
63556;BME280;49700;48.072;7.800;2024-01-15T07:31:12;98571.25;;;0.25;72.83
63556;BME280;49700;48.072;7.800;2024-01-15T07:33:43;98580.66;;;0.26;72.83
63556;BME280;49700;48.072;7.800;2024-01-15T07:36:09;98587.56;;;0.25;72.88
63556;BME280;49700;48.072;7.800;2024-01-15T07:38:34;98594.38;;;0.28;72.88
63556;BME280;49700;48.072;7.800;2024-01-15T07:41:00;98606.31;;;0.30;72.81
63556;BME280;49700;48.072;7.800;2024-01-15T07:43:25;98608.00;;;0.31;72.95
63556;BME280;49700;48.072;7.800;2024-01-15T07:45:53;98604.44;;;0.34;72.70
63556;BME280;49700;48.072;7.800;2024-01-15T07:48:18;98594.78;;;0.39;72.82
63556;BME280;49700;48.072;7.800;2024-01-15T07:50:43;98579.16;;;0.42;72.55
63556;BME280;49700;48.072;7.800;2024-01-15T07:53:09;98582.41;;;0.47;72.54
63556;BME280;49700;48.072;7.800;2024-01-15T07:55:34;98586.63;;;0.50;72.31
63556;BME280;49700;48.072;7.800;2024-01-15T07:58:00;98588.25;;;0.52;72.27
63556;BME280;49700;48.072;7.800;2024-01-15T08:00:26;98583.75;;;0.57;71.95
63556;BME280;49700;48.072;7.800;2024-01-15T08:02:52;98587.03;;;0.61;71.95
63556;BME280;49700;48.072;7.800;2024-01-15T08:05:18;98604.16;;;0.63;71.72
63556;BME280;49700;48.072;7.800;2024-01-15T08:07:44;98603.16;;;0.68;71.48
63556;BME280;49700;48.072;7.800;2024-01-15T08:10:09;98612.56;;;0.69;71.37
63556;BME280;49700;48.072;7.800;2024-01-15T08:12:34;98611.63;;;0.71;71.26
63556;BME280;49700;48.072;7.800;2024-01-15T08:15:00;98607.94;;;0.77;71.31
63556;BME280;49700;48.072;7.800;2024-01-15T08:17:26;98593.09;;;0.82;71.45
63556;BME280;49700;48.072;7.800;2024-01-15T08:19:54;98592.13;;;0.84;71.21
63556;BME280;49700;48.072;7.800;2024-01-15T08:22:20;98580.00;;;0.86;70.93
63556;BME280;49700;48.072;7.800;2024-01-15T08:24:45;98575.53;;;0.90;70.78
63556;BME280;49700;48.072;7.800;2024-01-15T08:27:11;98573.72;;;0.92;70.97
63556;BME280;49700;48.072;7.800;2024-01-15T08:29:36;98568.44;;;0.95;70.66
63556;BME280;49700;48.072;7.800;2024-01-15T08:32:02;98579.44;;;1.00;70.82
63556;BME280;49700;48.072;7.800;2024-01-15T08:34:27;98575.78;;;1.04;70.33
63556;BME280;49700;48.072;7.800;2024-01-15T08:36:53;98592.09;;;1.06;70.55
63556;BME280;49700;48.072;7.800;2024-01-15T08:39:25;98591.03;;;1.10;70.85
63556;BME280;49700;48.072;7.800;2024-01-15T08:41:50;98584.06;;;1.13;70.42
63556;BME280;49700;48.072;7.800;2024-01-15T08:44:16;98591.69;;;1.16;70.58
63556;BME280;49700;48.072;7.800;2024-01-15T08:46:42;98572.84;;;1.14;70.50
63556;BME280;49700;48.072;7.800;2024-01-15T08:49:07;98569.22;;;1.18;70.56
63556;BME280;49700;48.072;7.800;2024-01-15T08:51:32;98570.03;;;1.18;70.24
63556;BME280;49700;48.072;7.800;2024-01-15T08:53:58;98558.72;;;1.21;70.09
63556;BME280;49700;48.072;7.800;2024-01-15T08:56:24;98549.13;;;1.24;70.26
63556;BME280;49700;48.072;7.800;2024-01-15T08:58:50;98542.03;;;1.28;70.18
63556;BME280;49700;48.072;7.800;2024-01-15T09:01:15;98541.00;;;1.32;70.08
63556;BME280;49700;48.072;7.800;2024-01-15T09:03:43;98539.97;;;1.36;69.75
63556;BME280;49700;48.072;7.800;2024-01-15T09:06:09;98539.84;;;1.39;69.27
63556;BME280;49700;48.072;7.800;2024-01-15T09:08:35;98536.13;;;1.45;69.78
63556;BME280;49700;48.072;7.800;2024-01-15T09:11:01;98520.56;;;1.46;69.12
63556;BME280;49700;48.072;7.800;2024-01-15T09:13:28;98523.84;;;1.50;69.02
63556;BME280;49700;48.072;7.800;2024-01-15T09:15:54;98509.00;;;1.53;68.97
63556;BME280;49700;48.072;7.800;2024-01-15T09:18:19;98519.03;;;1.61;67.71
63556;BME280;49700;48.072;7.800;2024-01-15T09:20:44;98532.88;;;1.60;67.78
63556;BME280;49700;48.072;7.800;2024-01-15T09:23:10;98535.28;;;1.65;68.12
63556;BME280;49700;48.072;7.800;2024-01-15T09:25:35;98531.63;;;1.69;67.60
63556;BME280;49700;48.072;7.800;2024-01-15T09:28:01;98544.28;;;1.75;67.31
63556;BME280;49700;48.072;7.800;2024-01-15T09:30:27;98548.56;;;1.76;67.15
63556;BME280;49700;48.072;7.800;2024-01-15T09:32:52;98548.34;;;1.81;66.99
63556;BME280;49700;48.072;7.800;2024-01-15T09:35:18;98556.69;;;1.87;66.77
63556;BME280;49700;48.072;7.800;2024-01-15T09:37:44;98546.88;;;1.94;67.05
63556;BME280;49700;48.072;7.800;2024-01-15T09:40:12;98553.53;;;1.99;66.52
63556;BME280;49700;48.072;7.800;2024-01-15T09:42:40;98542.91;;;2.06;66.50
63556;BME280;49700;48.072;7.800;2024-01-15T09:45:07;98544.28;;;2.13;66.14
63556;BME280;49700;48.072;7.800;2024-01-15T09:47:33;98540.66;;;2.17;65.89
63556;BME280;49700;48.072;7.800;2024-01-15T09:50:02;98542.03;;;2.24;65.92
63556;BME280;49700;48.072;7.800;2024-01-15T09:52:31;98534.16;;;2.27;65.41
63556;BME280;49700;48.072;7.800;2024-01-15T09:55:01;98545.97;;;2.33;65.47
63556;BME280;49700;48.072;7.800;2024-01-15T09:57:26;98542.53;;;2.32;65.18
63556;BME280;49700;48.072;7.800;2024-01-15T09:59:53;98544.13;;;2.35;65.22
63556;BME280;49700;48.072;7.800;2024-01-15T10:02:20;98539.81;;;2.35;65.08
63556;BME280;49700;48.072;7.800;2024-01-15T10:07:48;98537.22;;;2.35;64.89
63556;BME280;49700;48.072;7.800;2024-01-15T10:10:18;98545.03;;;2.34;65.03
63556;BME280;49700;48.072;7.800;2024-01-15T10:12:47;98546.81;;;2.33;64.95
63556;BME280;49700;48.072;7.800;2024-01-15T10:15:13;98543.22;;;2.36;65.09
63556;BME280;49700;48.072;7.800;2024-01-15T10:17:56;98543.22;;;2.36;65.06
63556;BME280;49700;48.072;7.800;2024-01-15T10:20:24;98530.13;;;2.39;65.25
63556;BME280;49700;48.072;7.800;2024-01-15T10:23:02;98542.31;;;2.37;64.88
63556;BME280;49700;48.072;7.800;2024-01-15T10:25:35;98535.16;;;2.42;64.77
63556;BME280;49700;48.072;7.800;2024-01-15T10:28:08;98533.19;;;2.47;64.58
63556;BME280;49700;48.072;7.800;2024-01-15T10:30:38;98540.03;;;2.48;64.41
63556;BME280;49700;48.072;7.800;2024-01-15T10:33:09;98538.16;;;2.52;64.67
63556;BME280;49700;48.072;7.800;2024-01-15T10:35:35;98540.75;;;2.52;64.66
63556;BME280;49700;48.072;7.800;2024-01-15T10:38:12;98526.88;;;2.53;64.77
63556;BME280;49700;48.072;7.800;2024-01-15T10:40:54;98534.59;;;2.54;64.76
63556;BME280;49700;48.072;7.800;2024-01-15T10:43:28;98532.00;;;2.54;64.58
63556;BME280;49700;48.072;7.800;2024-01-15T10:46:05;98527.78;;;2.52;64.74
63556;BME280;49700;48.072;7.800;2024-01-15T10:48:32;98539.00;;;2.52;64.80
63556;BME280;49700;48.072;7.800;2024-01-15T10:51:00;98533.03;;;2.50;64.58
63556;BME280;49700;48.072;7.800;2024-01-15T10:53:26;98524.50;;;2.48;64.64
63556;BME280;49700;48.072;7.800;2024-01-15T10:55:51;98533.88;;;2.51;65.03
63556;BME280;49700;48.072;7.800;2024-01-15T10:58:18;98529.59;;;2.50;64.72
63556;BME280;49700;48.072;7.800;2024-01-15T11:00:45;98539.06;;;2.51;64.69
63556;BME280;49700;48.072;7.800;2024-01-15T11:03:11;98545.84;;;2.53;64.49
63556;BME280;49700;48.072;7.800;2024-01-15T11:05:37;98547.38;;;2.57;64.57
63556;BME280;49700;48.072;7.800;2024-01-15T11:08:10;98545.47;;;2.61;64.43
63556;BME280;49700;48.072;7.800;2024-01-15T11:10:50;98543.66;;;2.63;64.64
63556;BME280;49700;48.072;7.800;2024-01-15T11:13:42;98550.38;;;2.67;64.41
63556;BME280;49700;48.072;7.800;2024-01-15T11:16:11;98561.50;;;2.69;64.03
63556;BME280;49700;48.072;7.800;2024-01-15T11:21:24;98545.13;;;2.69;63.90
63556;BME280;49700;48.072;7.800;2024-01-15T11:23:55;98526.13;;;2.68;64.15
63556;BME280;49700;48.072;7.800;2024-01-15T11:29:06;98541.31;;;2.76;64.36
63556;BME280;49700;48.072;7.800;2024-01-15T11:34:03;98540.78;;;2.86;63.87
63556;BME280;49700;48.072;7.800;2024-01-15T11:42:05;98556.66;;;2.98;63.34
63556;BME280;49700;48.072;7.800;2024-01-15T11:44:30;98554.06;;;2.98;63.39
63556;BME280;49700;48.072;7.800;2024-01-15T11:49:59;98516.97;;;2.96;63.31
63556;BME280;49700;48.072;7.800;2024-01-15T11:52:26;98515.22;;;2.96;63.23
63556;BME280;49700;48.072;7.800;2024-01-15T11:55:11;98514.31;;;2.97;63.09
63556;BME280;49700;48.072;7.800;2024-01-15T11:57:45;98526.31;;;3.00;63.41
63556;BME280;49700;48.072;7.800;2024-01-15T12:00:12;98520.97;;;3.03;63.34
63556;BME280;49700;48.072;7.800;2024-01-15T12:02:46;98511.25;;;3.06;62.97
63556;BME280;49700;48.072;7.800;2024-01-15T12:05:16;98504.16;;;3.10;63.14
63556;BME280;49700;48.072;7.800;2024-01-15T12:07:43;98491.88;;;3.14;62.73
63556;BME280;49700;48.072;7.800;2024-01-15T12:10:13;98493.59;;;3.13;62.85
63556;BME280;49700;48.072;7.800;2024-01-15T12:15:16;98515.97;;;3.16;62.62
63556;BME280;49700;48.072;7.800;2024-01-15T12:17:42;98504.59;;;3.18;62.58
63556;BME280;49700;48.072;7.800;2024-01-15T12:20:08;98508.88;;;3.19;62.46
63556;BME280;49700;48.072;7.800;2024-01-15T12:22:33;98495.81;;;3.21;62.27
63556;BME280;49700;48.072;7.800;2024-01-15T12:24:59;98483.53;;;3.24;62.52
63556;BME280;49700;48.072;7.800;2024-01-15T12:27:25;98497.25;;;3.26;62.52
63556;BME280;49700;48.072;7.800;2024-01-15T12:29:53;98497.13;;;3.29;62.23
63556;BME280;49700;48.072;7.800;2024-01-15T12:32:18;98496.94;;;3.32;62.11
63556;BME280;49700;48.072;7.800;2024-01-15T12:34:44;98500.28;;;3.35;62.22
63556;BME280;49700;48.072;7.800;2024-01-15T12:37:09;98494.97;;;3.38;61.89
63556;BME280;49700;48.072;7.800;2024-01-15T12:39:36;98500.88;;;3.40;62.00
63556;BME280;49700;48.072;7.800;2024-01-15T12:42:02;98501.66;;;3.42;61.91
63556;BME280;49700;48.072;7.800;2024-01-15T12:44:28;98503.25;;;3.44;61.67
63556;BME280;49700;48.072;7.800;2024-01-15T12:46:54;98499.81;;;3.44;62.09
63556;BME280;49700;48.072;7.800;2024-01-15T12:49:21;98497.13;;;3.45;61.71
63556;BME280;49700;48.072;7.800;2024-01-15T12:51:53;98493.53;;;3.48;61.87
63556;BME280;49700;48.072;7.800;2024-01-15T12:54:20;98496.81;;;3.51;61.71
63556;BME280;49700;48.072;7.800;2024-01-15T12:56:46;98501.03;;;3.54;61.68
63556;BME280;49700;48.072;7.800;2024-01-15T12:59:11;98506.28;;;3.52;61.57
63556;BME280;49700;48.072;7.800;2024-01-15T13:01:36;98497.66;;;3.52;61.70
63556;BME280;49700;48.072;7.800;2024-01-15T13:04:02;98497.66;;;3.52;61.60
63556;BME280;49700;48.072;7.800;2024-01-15T13:06:28;98500.16;;;3.53;61.85
63556;BME280;49700;48.072;7.800;2024-01-15T13:08:53;98503.34;;;3.59;61.77
63556;BME280;49700;48.072;7.800;2024-01-15T13:11:19;98511.97;;;3.59;61.69
63556;BME280;49700;48.072;7.800;2024-01-15T13:13:44;98506.06;;;3.57;61.95
63556;BME280;49700;48.072;7.800;2024-01-15T13:16:13;98506.88;;;3.58;61.77
63556;BME280;49700;48.072;7.800;2024-01-15T13:18:38;98518.09;;;3.58;61.92
63556;BME280;49700;48.072;7.800;2024-01-15T13:21:06;98528.50;;;3.58;61.88
63556;BME280;49700;48.072;7.800;2024-01-15T13:23:31;98519.03;;;3.57;61.65
63556;BME280;49700;48.072;7.800;2024-01-15T13:25:57;98523.41;;;3.57;61.89